Harrisburg, PA (17177)

12:00 AM EST on February 11, 2016 (GMT -0500)
Colonial Park South | | Change Station
CLOSE
Current Station
Personal Weather Station
Location: Harrisburg, PA
Elevation: 489 ft
Nearby Weather Stations

Elev 489 ft 40.29 °N, 76.81 °W | Updated 4 minutes ago

Partly Cloudy
Partly Cloudy
20.8 °F
Feels Like 21 °F
N
2.2
Wind Variable Wind from West
Gusts 3.8 mph

Today
High -- | Low -- °F
--% Chance of Precip.
Yesterday
High -- | Low -- °F
Precip. -- in
Pressure 29.89 in
Visibility 10.0 miles
Clouds Few 10000 ft
Few 14000 ft
Scattered Clouds 25000 ft
Windchill 21 °F
Dew Point 7 °F
Humidity 55%
Rainfall in
Snow Depth Not available.
7:06 AM 5:37 PM
Waxing Crescent, 9% visible
METAR KMDT 110456Z 28015KT 10SM FEW100 FEW140 SCT250 M05/M11 A2987 RMK AO2 SLP121 T10501111 400001050
Pressure 29.89 in
Visibility 10.0 miles
Clouds Few 10000 ft
Few 14000 ft
Scattered Clouds 25000 ft
Windchill 21 °F
Dew Point 7 °F
Humidity 55%
Rainfall in
Snow Depth Not available.
7:06 AM 5:37 PM
Waxing Crescent, 9% visible
METAR KMDT 110456Z 28015KT 10SM FEW100 FEW140 SCT250 M05/M11 A2987 RMK AO2 SLP121 T10501111 400001050

10-Day Weather Forecast

Almanac

Astronomy

Feb. 11, 2016 Rise Set
Actual Time
Civil Twilight
Nautical Twilight
Astronomical Twilight
Moon
Length of Visible Light
Length of Day
Tomorrow will be .
, % of the Moon is Illuminated

Today's Extremes

State Highs State Lows

Community

WunderPhotos

Upload Photos

1,892,015 photos uploaded!

WunderBlog® & News

Nearby

Air Quality

  Air Quality AQ Index Pollutant
Not available.

Snow Depth

Station Depth Elevation

Earthquake Activity

City Distance Mag. Time & Date
Minimum magnitude displayed is 2.5.

Coastal Water Temperatures

Place Temperature

Stations

Nearby Weather Stations

Station Location Temp. Windchill Dew Point Humidity Wind Precip. Elev Updated Type
                   

Watches & Warnings

There are currently no watches in effect.